Time;durP1;ratioP1;P1;durP2;ratioP2;P2;SDS_P1;SDS_P2;PMS_P1;PMS_P2;Temp;Humidity;BMP_temperature;BMP_pressure;BME280_temperature;BME280_humidity;BME280_pressure;Samples;Min_cycle;Max_cycle;Signal;HPM_P1;HPM_P2
2023/06/05 00:02:05;;;;;;;5.38;2.33;;;10.10;99.90;;;;;;5053642;28;20040;-64
2023/06/05 00:04:31;;;;;;;4.10;1.83;;;11.00;5.40;;;;;;5055150;28;20044;-64
2023/06/05 00:06:57;;;;;;;4.65;2.40;;;10.10;99.90;;;;;;5054987;28;20033;-64
2023/06/05 00:09:23;;;;;;;3.08;1.70;;;10.20;99.90;;;;;;5053802;28;20378;-64
2023/06/05 00:11:49;;;;;;;5.25;1.92;;;10.20;99.90;;;;;;5054974;28;20123;-64
2023/06/05 00:14:15;;;;;;;3.17;1.98;;;10.00;99.90;;;;;;5071961;28;20059;-64
2023/06/05 00:16:41;;;;;;;4.13;1.88;;;10.30;99.90;;;;;;5074690;28;20048;-64
2023/06/05 00:19:06;;;;;;;3.70;1.70;;;10.10;99.90;;;;;;5056693;28;20415;-64
2023/06/05 00:21:32;;;;;;;5.50;2.13;;;10.30;99.90;;;;;;5074792;28;20040;-64
2023/06/05 00:23:58;;;;;;;3.30;1.85;;;10.00;99.90;;;;;;5074748;28;20119;-64
2023/06/05 00:26:23;;;;;;;4.32;1.88;;;10.00;99.90;;;;;;5074580;28;20423;-64
2023/06/05 00:28:49;;;;;;;4.15;2.10;;;10.00;41.10;;;;;;5074552;28;20055;-64
2023/06/05 00:31:17;;;;;;;3.40;1.77;;;10.00;1.00;;;;;;5074591;28;20408;-64
2023/06/05 00:33:42;;;;;;;4.00;2.25;;;10.10;1.00;;;;;;5074558;28;20595;-64
2023/06/05 00:36:08;;;;;;;3.92;2.20;;;10.10;99.90;;;;;;5074511;28;20082;-64
2023/06/05 00:38:34;;;;;;;3.10;1.90;;;10.20;17.20;;;;;;5074462;28;20042;-64
2023/06/05 00:41:02;;;;;;;4.53;2.30;;;;;;;;;;5074446;28;20047;-64
2023/06/05 00:43:28;;;;;;;4.15;2.17;;;;;;;;;;5074346;28;20119;-64
2023/06/05 00:45:57;;;;;;;4.38;2.08;;;;;;;;;;5074013;28;20045;-64
2023/06/05 00:48:23;;;;;;;6.60;2.42;;;;;;;;;;5056004;28;20041;-64
2023/06/05 00:50:50;;;;;;;4.25;2.33;;;;;;;;;;5073897;28;20040;-64
2023/06/05 00:53:16;;;;;;;4.60;2.13;;;;;;;;;;5074206;28;20495;-64
2023/06/05 00:55:42;;;;;;;3.63;1.75;;;;;;;;;;5074082;28;20365;-64
2023/06/05 00:58:08;;;;;;;4.80;2.03;;;;;;;;;;5074000;28;20511;-65
2023/06/05 01:00:36;;;;;;;4.53;2.10;;;;;;;;;;5074059;28;20048;-64
2023/06/05 01:03:02;;;;;;;5.90;2.25;;;;;;;;;;5073970;28;20377;-64
2023/06/05 01:05:28;;;;;;;3.47;2.03;;;;;;;;;;5073665;28;20037;-64
2023/06/05 01:07:55;;;;;;;6.13;2.28;;;;;;;;;;5055523;28;20040;-64
2023/06/05 01:10:21;;;;;;;4.55;1.95;;;;;;;;;;5073095;28;20381;-64
2023/06/05 01:12:51;;;;;;;4.97;1.90;;;;;;;;;;5055645;28;20044;-65
2023/06/05 01:15:18;;;;;;;4.15;2.20;;;;;;;;;;5055976;28;20105;-64
2023/06/05 01:17:47;;;;;;;3.10;2.10;;;;;;;;;;5055480;28;20036;-65
2023/06/05 01:20:13;;;;;;;3.45;2.10;;;;;;;;;;5073661;28;20048;-64
2023/06/05 01:22:39;;;;;;;5.20;2.30;;;;;;;;;;5055719;28;20084;-64
2023/06/05 01:25:07;;;;;;;2.90;1.80;;;;;;;;;;5073526;28;20126;-64
2023/06/05 01:27:39;;;;;;;3.53;2.20;;;;;;;;;;5073457;28;20158;-64
2023/06/05 01:30:08;;;;;;;4.55;2.53;;;;;;;;;;5073466;28;20052;-64
2023/06/05 01:32:54;;;;;;;8.30;2.53;;;;;;;;;;5073437;28;20465;-64
2023/06/05 01:35:21;;;;;;;3.38;1.52;;;;;;;;;;5073182;28;20473;-65
2023/06/05 01:37:51;;;;;;;3.60;2.08;;;;;;;;;;5054880;28;20052;-64
2023/06/05 01:40:19;;;;;;;3.78;2.28;;;;;;;;;;5073383;28;20044;-64
2023/06/05 01:42:46;;;;;;;4.82;2.20;;;;;;;;;;5073294;28;20067;-64
2023/06/05 01:45:13;;;;;;;5.13;2.25;;;;;;;;;;5072922;28;20037;-64
2023/06/05 01:47:40;;;;;;;4.68;2.33;;;;;;;;;;5073202;28;20064;-64
2023/06/05 01:50:07;;;;;;;4.50;2.58;;;;;;;;;;5055249;28;20109;-65
2023/06/05 01:52:34;;;;;;;5.93;2.40;;;;;;;;;;5073195;28;20043;-65
2023/06/05 01:55:01;;;;;;;6.03;2.47;;;;;;;;;;5073114;28;20040;-64
2023/06/05 01:57:28;;;;;;;3.85;2.15;;;;;;;;;;5072796;28;20036;-65
2023/06/05 01:59:54;;;;;;;2.63;1.95;;;;;;;;;;5038628;28;20050;-64
2023/06/05 02:02:21;;;;;;;4.03;2.03;;;;;;;;;;5080604;22;20131;-69
2023/06/05 02:04:47;;;;;;;4.47;2.75;;;;;;;;;;5072845;28;20044;-70
2023/06/05 02:07:14;;;;;;;5.53;2.38;;;;;;;;;;5072967;28;20044;-70
2023/06/05 02:09:43;;;;;;;4.57;2.15;;;;;;;;;;5072636;28;20124;-70
2023/06/05 02:12:10;;;;;;;4.57;2.47;;;;;;;;;;5072941;28;20097;-69
2023/06/05 02:14:37;;;;;;;3.90;2.50;;;;;;;;;;5071719;28;20044;-69
2023/06/05 02:17:06;;;;;;;4.90;2.40;;;;;;;;;;5072891;28;20067;-69
2023/06/05 02:19:35;;;;;;;3.42;2.30;;;;;;;;;;5072885;28;20080;-69
2023/06/05 02:22:01;;;;;;;4.78;2.50;;;;;;;;;;5075030;28;20037;-70
2023/06/05 02:24:27;;;;;;;4.47;2.35;;;;;;;;;;5076748;28;20037;-69
2023/06/05 02:26:53;;;;;;;4.80;2.83;;;;;;;;;;5076868;28;20049;-70
2023/06/05 02:29:19;;;;;;;3.58;2.55;;;;;;;;;;5076891;28;20064;-69
2023/06/05 02:31:45;;;;;;;6.03;3.22;;;;;;;;;;5076929;28;20541;-70
2023/06/05 02:34:11;;;;;;;5.03;3.28;;;;;;;;;;5075286;28;20033;-70
2023/06/05 02:36:38;;;;;;;4.85;2.17;;;;;;;;;;5076856;28;20040;-70
2023/06/05 02:39:07;;;;;;;7.20;2.75;;;;;;;;;;5076519;28;20040;-70
2023/06/05 02:41:33;;;;;;;9.75;3.13;;;;;;;;;;5076452;28;20040;-69
2023/06/05 02:43:59;;;;;;;6.40;2.78;;;;;;;;;;5075285;28;20059;-69
2023/06/05 02:46:25;;;;;;;4.75;2.70;;;;;;;;;;5076591;28;20634;-69
2023/06/05 02:48:52;;;;;;;4.45;2.70;;;;;;;;;;5076564;28;20086;-69
2023/06/05 02:51:18;;;;;;;5.20;2.88;;;;;;;;;;5076227;28;20119;-69
2023/06/05 02:53:44;;;;;;;5.00;2.80;;;;;;;;;;5076554;28;20040;-69
2023/06/05 02:56:10;;;;;;;4.10;2.45;;;;;;;;;;5076373;28;20090;-69
2023/06/05 02:58:37;;;;;;;5.25;2.97;;;;;;;;;;5076096;28;20048;-69
2023/06/05 03:01:03;;;;;;;5.95;2.55;;;;;;;;;;5075988;28;20066;-69
2023/06/05 03:03:32;;;;;;;4.20;2.60;;;;;;;;;;5075877;28;20044;-70
2023/06/05 03:06:04;;;;;;;6.28;3.10;;;;;;;;;;5076208;28;20040;-70
2023/06/05 03:08:34;;;;;;;6.13;1.98;;;;;;;;;;5076148;28;20041;-70
2023/06/05 03:11:04;;;;;;;4.07;2.20;;;;;;;;;;5076128;28;20472;-70
2023/06/05 03:13:30;;;;;;;4.63;2.45;;;;;;;;;;5074453;28;20102;-69
2023/06/05 03:15:57;;;;;;;3.97;2.40;;;;;;;;;;5075701;28;20068;-69
2023/06/05 03:18:25;;;;;;;4.13;2.25;;;;;;;;;;5075952;28;20041;-69
2023/06/05 03:20:55;;;;;;;5.70;2.88;;;;;;;;;;5075911;28;20394;-69
2023/06/05 03:23:23;;;;;;;4.18;2.22;;;;;;;;;;5075934;28;20040;-69
2023/06/05 03:25:49;;;;;;;3.60;2.22;;;;;;;;;;5075512;28;20037;-69
2023/06/05 03:28:15;;;;;;;4.15;2.60;;;;;;;;;;5075815;28;20056;-70
2023/06/05 03:30:41;;;;;;;3.75;2.22;;;;;;;;;;5075733;28;20483;-69
2023/06/05 03:33:07;;;;;;;4.13;2.35;;;;;;;;;;5074872;28;20040;-69
2023/06/05 03:35:34;;;;;;;5.60;2.63;;;;;;;;;;5075702;28;20403;-70
2023/06/05 03:38:00;;;;;;;5.05;2.55;;;;;;;;;;5075234;28;20097;-70
2023/06/05 03:40:26;;;;;;;6.07;2.90;;;;;;;;;;5075654;28;20144;-70
2023/06/05 03:42:52;;;;;;;5.80;2.33;;;;;;;;;;5075190;28;20503;-70
2023/06/05 03:45:18;;;;;;;4.07;2.25;;;;;;;;;;5075506;28;20044;-70
2023/06/05 03:47:48;;;;;;;10.65;2.53;;;;;;;;;;5073930;28;20052;-70
2023/06/05 03:50:15;;;;;;;5.78;2.63;;;;;;;;;;5075160;28;20495;-69
2023/06/05 03:52:41;;;;;;;8.98;3.08;;;;;;;;;;5074177;28;20040;-69
2023/06/05 03:55:07;;;;;;;5.38;3.03;;;;;;;;;;5075389;28;20033;-69
2023/06/05 03:57:34;;;;;;;3.97;2.40;;;;;;;;;;5075347;28;20036;-70
2023/06/05 04:00:00;;;;;;;5.30;2.90;;;;;;;;;;5075314;28;20088;-69
2023/06/05 04:02:26;;;;;;;4.38;2.58;;;;;;;;;;5075009;28;20056;-69
2023/06/05 04:04:52;;;;;;;8.30;3.60;;;;;;;;;;5075119;28;20044;-69
2023/06/05 04:07:19;;;;;;;4.82;2.33;;;;;;;;;;5074788;28;20094;-69
2023/06/05 04:09:45;;;;;;;4.47;2.17;;;;;;;;;;5073589;28;20040;-70
2023/06/05 04:12:11;;;;;;;5.20;2.67;;;;;;;;;;5074778;28;20075;-70
2023/06/05 04:14:38;;;;;;;3.95;2.28;;;;;;;;;;5074984;28;20476;-70
2023/06/05 04:17:04;;;;;;;6.22;2.28;;;;;;;;;;5074627;28;20055;-69
2023/06/05 04:19:30;;;;;;;3.00;2.17;;;;;;;;;;5073343;28;20037;-70
2023/06/05 04:21:56;;;;;;;7.70;2.47;;;;;;;;;;5074564;28;20040;-70
2023/06/05 04:24:25;;;;;;;8.30;2.30;;;;;;;;;;5073439;28;20043;-70
2023/06/05 04:26:51;;;;;;;3.28;2.28;;;;;;;;;;5074329;28;20051;-69
2023/06/05 04:29:18;;;;;;;5.22;2.30;;;;;;;;;;5074441;28;20051;-70
2023/06/05 04:31:44;;;;;;;4.18;2.28;;;;;;;;;;5074613;28;20445;-69
2023/06/05 04:34:11;;;;;;;5.10;1.80;;;;;;;;;;5074593;28;20079;-70
2023/06/05 04:36:37;;;;;;;4.18;2.17;;;;;;;;;;5074255;28;20040;-69
2023/06/05 04:39:04;;;;;;;3.42;1.92;;;;;;;;;;5074513;28;20487;-69
2023/06/05 04:41:32;;;;;;;2.22;1.35;;;;;;;;;;5073197;28;20558;-69
2023/06/05 04:43:59;;;;;;;6.00;1.90;;;;;;;;;;5072832;28;20052;-70
2023/06/05 04:46:26;;;;;;;3.08;2.00;;;;;;;;;;5074274;28;20487;-69
2023/06/05 04:48:55;;;;;;;4.25;2.00;;;;;;;;;;5074283;28;20036;-69
2023/06/05 04:51:21;;;;;;;4.22;1.65;;;;;;;;;;5074326;28;20040;-69
2023/06/05 04:53:50;;;;;;;4.43;1.90;;;;;;;;;;5074168;28;20392;-69
2023/06/05 04:56:16;;;;;;;4.82;2.25;;;;;;;;;;5074090;28;20033;-70
2023/06/05 04:58:42;;;;;;;3.25;1.65;;;;;;;;;;5074083;28;20043;-69
2023/06/05 05:01:09;;;;;;;4.50;2.17;;;;;;;;;;5073646;28;20075;-69
2023/06/05 05:03:35;;;;;;;4.82;2.40;;;;;;;;;;5074249;28;20068;-62
2023/06/05 05:06:01;;;;;;;4.10;2.50;;;11.50;99.90;;;;;;5073998;28;20044;-63
2023/06/05 05:08:27;;;;;;;5.28;2.40;;;11.50;99.90;;;;;;5073587;28;20040;-63
2023/06/05 05:10:53;;;;;;;5.40;2.88;;;11.50;90.70;;;;;;5073829;28;20036;-63
2023/06/05 05:13:19;;;;;;;6.60;3.03;;;11.80;1.00;;;;;;5073787;28;20043;-63
2023/06/05 05:15:46;;;;;;;5.15;3.25;;;11.90;50.00;;;;;;5073772;28;20475;-63
2023/06/05 05:18:12;;;;;;;7.10;3.20;;;11.60;30.60;;;;;;5072151;28;20044;-63
2023/06/05 05:20:39;;;;;;;5.93;3.50;;;11.70;1.00;;;;;;5073463;28;20036;-63
2023/06/05 05:23:07;;;;;;;6.20;3.63;;;11.80;1.00;;;;;;5073604;28;20052;-63
2023/06/05 05:25:33;;;;;;;7.38;4.20;;;11.80;99.90;;;;;;5073525;28;20119;-63
2023/06/05 05:27:59;;;;;;;8.23;4.15;;;11.90;99.90;;;;;;5073314;28;20128;-62
2023/06/05 05:30:24;;;;;;;6.88;4.47;;;12.00;99.90;;;;;;5073233;28;20067;-63
2023/06/05 05:32:50;;;;;;;8.55;3.22;;;12.10;1.00;;;;;;5073406;28;20035;-62
2023/06/05 05:35:16;;;;;;;10.82;4.55;;;12.10;1.00;;;;;;5073129;28;20045;-63
2023/06/05 05:37:42;;;;;;;8.63;3.95;;;;;;;;;;5073315;28;20032;-63
2023/06/05 05:40:08;;;;;;;8.13;3.50;;;12.30;99.90;;;;;;5073100;28;20052;-63
2023/06/05 05:42:33;;;;;;;6.10;3.17;;;12.40;99.90;;;;;;5071881;28;20037;-62
2023/06/05 05:44:59;;;;;;;5.82;2.58;;;12.40;99.90;;;;;;5072953;28;20040;-63
2023/06/05 05:47:25;;;;;;;3.30;2.20;;;12.50;99.90;;;;;;5071730;28;20054;-63
2023/06/05 05:49:50;;;;;;;4.95;2.60;;;12.60;99.90;;;;;;5071713;28;20376;-64
2023/06/05 05:52:16;;;;;;;4.57;2.08;;;12.70;99.90;;;;;;5073200;28;20060;-63
2023/06/05 05:54:41;;;;;;;3.85;1.73;;;12.80;99.90;;;;;;5071737;28;20040;-65
2023/06/05 05:57:07;;;;;;;3.78;1.95;;;12.90;99.90;;;;;;5072617;28;20045;-63
2023/06/05 05:59:32;;;;;;;3.22;1.67;;;13.20;99.90;;;;;;5073106;28;20071;-62
2023/06/05 06:02:00;;;;;;;2.42;1.42;;;12.90;99.90;;;;;;5071644;28;20044;-64
2023/06/05 06:04:26;;;;;;;1.95;1.20;;;13.10;99.90;;;;;;5073119;28;20107;-65
2023/06/05 06:06:52;;;;;;;2.70;1.33;;;13.60;99.90;;;;;;5072916;28;20460;-62
2023/06/05 06:09:18;;;;;;;2.72;1.52;;;13.20;99.90;;;;;;5072963;28;20052;-64
2023/06/05 06:11:44;;;;;;;2.75;1.48;;;13.10;99.90;;;;;;5073004;28;20063;-63
2023/06/05 06:14:10;;;;;;;1.63;1.13;;;13.20;99.90;;;;;;5072980;28;20523;-63
2023/06/05 06:16:40;;;;;;;2.88;1.50;;;13.40;99.90;;;;;;5072684;28;20088;-62
2023/06/05 06:19:05;;;;;;;3.35;1.17;;;13.80;99.90;;;;;;5072900;28;20052;-63
2023/06/05 06:21:31;;;;;;;1.98;0.98;;;13.50;99.90;;;;;;5072815;28;20040;-63
2023/06/05 06:23:57;;;;;;;2.60;1.42;;;13.60;99.90;;;;;;5072864;28;20041;-63
2023/06/05 06:26:23;;;;;;;3.50;1.55;;;13.70;99.90;;;;;;5072750;28;20089;-63
2023/06/05 06:28:48;;;;;;;1.88;1.08;;;14.20;99.90;;;;;;5072803;28;20429;-63
2023/06/05 06:31:14;;;;;;;1.60;1.05;;;14.20;99.90;;;;;;5072783;28;20044;-63
2023/06/05 06:33:40;;;;;;;1.33;0.88;;;13.90;99.90;;;;;;5072737;28;20383;-63
2023/06/05 06:36:06;;;;;;;3.88;1.55;;;14.70;99.90;;;;;;5072483;28;20034;-63
2023/06/05 06:38:32;;;;;;;2.42;1.23;;;14.20;99.90;;;;;;5072441;28;20537;-63
2023/06/05 06:40:58;;;;;;;1.48;1.00;;;14.20;99.90;;;;;;5072708;28;20080;-63
2023/06/05 06:43:24;;;;;;;2.22;1.20;;;14.20;98.70;;;;;;5072647;28;20083;-62
2023/06/05 06:45:51;;;;;;;3.28;1.52;;;14.30;99.90;;;;;;5072623;28;20581;-63
2023/06/05 06:48:18;;;;;;;2.90;1.13;;;14.50;97.80;;;;;;5072624;28;20040;-63
2023/06/05 06:50:44;;;;;;;2.20;1.15;;;14.90;98.40;;;;;;5072623;28;20066;-63
2023/06/05 06:53:10;;;;;;;3.55;1.75;;;14.70;98.00;;;;;;5072495;28;20490;-63
2023/06/05 06:55:36;;;;;;;1.65;1.40;;;14.60;94.40;;;;;;5072397;28;20040;-62
2023/06/05 06:58:02;;;;;;;3.92;1.38;;;14.50;92.00;;;;;;5072143;28;20076;-63
2023/06/05 07:00:27;;;;;;;4.35;1.80;;;14.70;91.60;;;;;;5071946;28;20112;-63
2023/06/05 07:02:53;;;;;;;1.85;1.08;;;14.50;92.70;;;;;;5072126;28;20094;-66
2023/06/05 07:05:20;;;;;;;2.58;1.17;;;14.70;92.80;;;;;;5072695;28;20051;-67
2023/06/05 07:07:45;;;;;;;2.22;1.30;;;14.70;91.70;;;;;;5072341;28;20048;-67
2023/06/05 07:10:11;;;;;;;2.63;1.20;;;14.70;90.20;;;;;;5075936;28;20440;-66
2023/06/05 07:12:37;;;;;;;1.23;0.90;;;14.80;89.80;;;;;;5076080;28;20036;-67
2023/06/05 07:15:03;;;;;;;2.17;1.08;;;15.00;91.80;;;;;;5076078;28;20028;-66
2023/06/05 07:17:30;;;;;;;1.95;1.10;;;14.90;90.10;;;;;;5076091;28;20036;-66
2023/06/05 07:19:57;;;;;;;2.63;1.40;;;15.00;89.10;;;;;;5075662;28;20040;-66
2023/06/05 07:22:24;;;;;;;2.67;1.58;;;15.10;90.00;;;;;;5074660;28;20476;-66
2023/06/05 07:24:50;;;;;;;1.85;1.08;;;15.30;90.20;;;;;;5075693;28;20044;-66
2023/06/05 07:27:16;;;;;;;2.05;1.38;;;15.30;84.80;;;;;;5075613;28;20491;-66
2023/06/05 07:29:42;;;;;;;2.10;1.20;;;15.40;84.70;;;;;;5075643;28;20480;-66
2023/06/05 07:32:08;;;;;;;2.28;1.60;;;15.50;80.90;;;;;;5075514;28;20047;-66
2023/06/05 07:34:36;;;;;;;2.10;1.23;;;15.50;74.90;;;;;;5075367;28;20040;-66
2023/06/05 07:37:02;;;;;;;3.58;1.52;;;15.60;74.00;;;;;;5075679;28;20064;-66
2023/06/05 07:39:28;;;;;;;3.40;1.10;;;15.70;77.00;;;;;;5075468;28;20074;-66
2023/06/05 07:41:54;;;;;;;1.38;0.98;;;15.90;76.50;;;;;;5075303;28;20064;-66
2023/06/05 07:44:21;;;;;;;2.88;1.10;;;16.00;74.40;;;;;;5075587;28;20044;-66
2023/06/05 07:46:48;;;;;;;2.15;1.23;;;16.00;72.60;;;;;;5075238;28;20115;-66
2023/06/05 07:49:15;;;;;;;3.70;1.45;;;16.20;72.70;;;;;;5075533;28;20032;-66
2023/06/05 07:51:42;;;;;;;2.33;1.25;;;16.40;70.40;;;;;;5075174;28;20037;-66
2023/06/05 07:54:09;;;;;;;2.40;1.15;;;16.40;71.50;;;;;;5075428;28;20496;-66
2023/06/05 07:56:35;;;;;;;1.65;1.17;;;16.50;71.40;;;;;;5075117;28;20072;-66
2023/06/05 07:59:02;;;;;;;1.25;0.93;;;16.60;71.70;;;;;;5075220;28;20068;-66
2023/06/05 08:01:29;;;;;;;5.53;1.35;;;16.80;71.80;;;;;;5075224;28;20407;-66
2023/06/05 08:03:55;;;;;;;2.17;1.30;;;16.90;68.90;;;;;;5074857;28;20064;-67
2023/06/05 08:06:24;;;;;;;2.00;1.25;;;16.90;66.30;;;;;;5075080;28;20040;-66
2023/06/05 08:08:52;;;;;;;1.73;1.15;;;16.80;61.20;;;;;;5075001;28;20044;-65
2023/06/05 08:11:18;;;;;;;2.38;1.20;;;17.00;61.40;;;;;;5074939;28;20040;-66
2023/06/05 08:13:44;;;;;;;3.45;1.20;;;17.00;58.70;;;;;;5074902;28;20121;-66
2023/06/05 08:16:09;;;;;;;1.38;1.00;;;17.00;56.20;;;;;;5074906;28;20039;-65
2023/06/05 08:18:35;;;;;;;3.85;1.20;;;17.10;58.30;;;;;;5074814;28;20127;-66
2023/06/05 08:21:01;;;;;;;4.20;1.42;;;17.20;59.00;;;;;;5074406;28;20044;-65
2023/06/05 08:23:26;;;;;;;2.53;1.27;;;17.30;58.10;;;;;;5073197;28;20436;-66
2023/06/05 08:25:53;;;;;;;5.88;1.55;;;18.10;57.10;;;;;;5074349;28;20036;-66
2023/06/05 08:28:18;;;;;;;1.67;0.90;;;17.30;51.80;;;;;;5074552;28;20040;-66
2023/06/05 08:30:44;;;;;;;2.13;1.17;;;17.40;52.90;;;;;;5074597;28;20090;-66
2023/06/05 08:33:10;;;;;;;2.22;1.10;;;17.80;53.10;;;;;;5072948;28;20388;-65
2023/06/05 08:35:37;;;;;;;1.20;1.00;;;17.40;47.90;;;;;;5074200;28;20045;-66
2023/06/05 08:38:03;;;;;;;2.00;1.20;;;17.40;47.40;;;;;;5074338;28;20468;-66
2023/06/05 08:40:29;;;;;;;1.85;1.00;;;17.40;47.10;;;;;;5073052;28;20059;-66
2023/06/05 08:42:55;;;;;;;4.72;1.38;;;17.50;47.00;;;;;;5074219;28;20047;-66
2023/06/05 08:45:21;;;;;;;1.77;1.23;;;17.60;46.00;;;;;;5074273;28;20083;-66
2023/06/05 08:47:50;;;;;;;2.55;1.20;;;17.50;45.90;;;;;;5074199;28;20090;-66
2023/06/05 08:50:16;;;;;;;1.83;1.17;;;17.60;45.20;;;;;;5074274;28;20041;-66
2023/06/05 08:52:45;;;;;;;2.05;1.20;;;17.80;46.90;;;;;;5074230;28;20055;-66
2023/06/05 08:55:11;;;;;;;1.90;1.30;;;17.80;44.30;;;;;;5074201;28;20041;-66
2023/06/05 08:57:41;;;;;;;2.67;1.33;;;17.80;41.20;;;;;;5073823;28;20039;-67
2023/06/05 09:00:10;;;;;;;2.30;1.23;;;17.80;42.70;;;;;;5074144;28;20040;-67
2023/06/05 09:02:47;;;;;;;2.35;1.45;;;17.90;43.20;;;;;;5072551;28;20121;-67
2023/06/05 09:05:17;;;;;;;3.13;1.27;;;17.80;37.20;;;;;;5074029;28;20480;-68
2023/06/05 09:07:43;;;;;;;2.65;1.17;;;17.90;37.30;;;;;;5073539;28;20044;-67
2023/06/05 09:10:29;;;;;;;2.20;1.17;;;17.90;34.70;;;;;;5073875;28;20033;-67
2023/06/05 09:12:56;;;;;;;1.83;1.05;;;17.90;34.00;;;;;;5073869;28;20040;-68
2023/06/05 09:15:30;;;;;;;1.13;0.95;;;17.90;37.30;;;;;;5073831;28;20033;-67
2023/06/05 09:18:08;;;;;;;2.67;1.60;;;18.00;39.50;;;;;;5073747;28;20044;-66
2023/06/05 09:20:35;;;;;;;2.15;1.08;;;18.10;38.10;;;;;;5072086;28;20052;-67
2023/06/05 09:23:02;;;;;;;2.35;1.27;;;18.10;37.70;;;;;;5071980;28;20094;-67
2023/06/05 09:25:47;;;;;;;1.83;1.25;;;18.20;39.10;;;;;;5072259;28;20079;-67
2023/06/05 09:28:14;;;;;;;2.40;1.23;;;18.40;38.20;;;;;;5073260;28;20518;-68
2023/06/05 09:30:57;;;;;;;2.15;1.20;;;18.40;40.80;;;;;;5072857;28;20062;-67
2023/06/05 09:33:23;;;;;;;3.17;1.13;;;18.50;40.40;;;;;;5073446;28;20047;-67
2023/06/05 09:36:02;;;;;;;1.70;1.20;;;18.60;41.70;;;;;;5073132;28;20025;-67
2023/06/05 09:38:28;;;;;;;2.15;1.17;;;18.50;38.70;;;;;;5073069;28;20127;-67
2023/06/05 09:41:02;;;;;;;1.75;1.10;;;18.80;38.80;;;;;;5073094;28;20075;-65
2023/06/05 09:43:27;;;;;;;1.42;1.00;;;18.70;37.10;;;;;;5073283;28;20044;-67
2023/06/05 09:45:53;;;;;;;2.55;1.48;;;18.70;39.90;;;;;;5072935;28;20089;-69
2023/06/05 09:48:19;;;;;;;2.70;1.25;;;18.90;40.20;;;;;;5073145;28;20045;-67
2023/06/05 09:50:45;;;;;;;1.50;1.10;;;19.00;37.80;;;;;;5073077;28;20060;-69
2023/06/05 09:53:18;;;;;;;1.98;1.10;;;18.90;37.10;;;;;;5073093;28;20514;-70
2023/06/05 09:55:44;;;;;;;2.03;1.13;;;18.90;33.20;;;;;;5073120;28;20089;-68
2023/06/05 09:58:13;;;;;;;2.65;1.20;;;18.80;32.20;;;;;;5072656;28;20039;-68
2023/06/05 10:00:41;;;;;;;2.20;1.20;;;18.80;32.40;;;;;;5072506;28;20047;-67
2023/06/05 10:03:16;;;;;;;1.80;1.20;;;18.90;31.80;;;;;;5072668;28;20052;-67
2023/06/05 10:05:44;;;;;;;1.70;1.17;;;18.90;33.50;;;;;;5072566;28;20133;-67
2023/06/05 10:08:11;;;;;;;2.75;1.55;;;19.00;33.50;;;;;;5072843;28;20120;-67
2023/06/05 10:10:38;;;;;;;3.15;1.48;;;19.00;33.90;;;;;;5072771;28;20036;-68
2023/06/05 10:13:04;;;;;;;2.58;1.25;;;19.20;36.50;;;;;;5072966;28;20086;-67
2023/06/05 10:15:31;;;;;;;5.70;2.17;;;19.60;36.80;;;;;;5072612;28;20048;-66
2023/06/05 10:17:57;;;;;;;5.28;1.73;;;19.20;36.40;;;;;;5072827;28;20113;-66
2023/06/05 10:20:23;;;;;;;2.15;1.25;;;19.30;34.80;;;;;;5071376;28;20423;-66
2023/06/05 10:22:50;;;;;;;3.45;1.20;;;19.20;32.90;;;;;;5072836;28;20071;-66
2023/06/05 10:25:19;;;;;;;2.30;1.38;;;19.10;28.80;;;;;;5072904;28;20040;-68
2023/06/05 10:28:00;;;;;;;2.40;1.47;;;19.10;30.80;;;;;;5072802;28;20044;-66
2023/06/05 10:30:35;;;;;;;3.38;1.50;;;19.20;32.60;;;;;;5071447;28;20098;-68
2023/06/05 10:33:12;;;;;;;2.70;1.35;;;19.20;45.50;;;;;;5072212;28;20403;-67
2023/06/05 10:36:03;;;;;;;1.73;1.23;;;19.20;32.40;;;;;;5072881;28;20119;-67
2023/06/05 10:38:30;;;;;;;1.67;1.15;;;19.10;30.00;;;;;;5072532;28;20047;-68
2023/06/05 10:41:01;;;;;;;3.47;2.05;;;19.20;29.60;;;;;;5072584;28;20090;-67
2023/06/05 10:43:49;;;;;;;1.50;0.93;;;19.10;28.70;;;;;;5075346;28;20047;-66
2023/06/05 10:46:28;;;;;;;2.05;1.08;;;19.00;28.20;;;;;;5076291;28;20044;-67
2023/06/05 10:49:19;;;;;;;3.58;1.20;;;19.00;27.50;;;;;;5076446;28;20048;-68
2023/06/05 10:51:50;;;;;;;2.30;1.40;;;18.90;27.20;;;;;;5076428;28;20041;-67
2023/06/05 10:54:21;;;;;;;2.42;1.40;;;18.80;26.30;;;;;;5074778;28;20046;-68
2023/06/05 10:56:59;;;;;;;2.85;1.33;;;18.80;24.50;;;;;;5075079;28;20048;-69
2023/06/05 10:59:39;;;;;;;1.58;1.10;;;19.00;26.80;;;;;;5076184;28;20040;-67
2023/06/05 11:02:08;;;;;;;2.03;1.15;;;18.90;27.50;;;;;;5075830;28;20079;-67
2023/06/05 11:04:46;;;;;;;1.80;1.20;;;19.10;42.30;;;;;;5076115;28;20508;-68
2023/06/05 11:07:17;;;;;;;3.08;1.35;;;19.20;29.50;;;;;;5075065;28;20048;-67
2023/06/05 11:10:01;;;;;;;2.67;1.40;;;19.20;28.80;;;;;;5076211;28;20040;-68
2023/06/05 11:12:40;;;;;;;1.38;0.93;;;19.20;28.80;;;;;;5075974;28;20128;-68
2023/06/05 11:15:10;;;;;;;2.10;1.20;;;19.20;29.10;;;;;;5075650;28;20040;-68
2023/06/05 11:17:43;;;;;;;2.87;1.27;;;19.30;29.20;;;;;;5075780;28;20045;-68
2023/06/05 11:20:21;;;;;;;3.35;1.58;;;19.30;29.50;;;;;;5076053;28;20041;-67
2023/06/05 11:22:52;;;;;;;2.13;1.30;;;20.80;31.20;;;;;;5075872;28;20036;-67
2023/06/05 11:25:26;;;;;;;2.40;1.17;;;19.60;28.10;;;;;;5075886;28;20421;-67
2023/06/05 11:27:58;;;;;;;3.00;1.25;;;19.60;29.50;;;;;;5075771;28;20084;-68
2023/06/05 11:30:29;;;;;;;3.03;1.45;;;19.40;28.60;;;;;;5075815;28;20392;-67
2023/06/05 11:32:58;;;;;;;1.83;1.00;;;19.80;30.00;;;;;;5075486;28;20033;-68
2023/06/05 11:35:29;;;;;;;1.80;1.30;;;19.50;29.30;;;;;;5075733;28;20032;-68
2023/06/05 11:38:10;;;;;;;1.95;1.27;;;19.40;26.70;;;;;;5075682;28;20082;-68
2023/06/05 11:40:35;;;;;;;1.95;1.02;;;19.50;28.90;;;;;;5075671;28;20392;-67
2023/06/05 11:43:12;;;;;;;2.38;1.33;;;19.60;29.30;;;;;;5074029;28;20044;-68
2023/06/05 11:45:39;;;;;;;3.50;1.30;;;19.40;27.30;;;;;;5075423;28;20094;-68
2023/06/05 11:48:08;;;;;;;2.28;1.30;;;19.50;28.10;;;;;;5075368;28;20041;-67
2023/06/05 11:50:35;;;;;;;2.70;1.50;;;19.50;27.70;;;;;;5075409;28;20040;-67
2023/06/05 11:53:08;;;;;;;1.83;1.10;;;19.60;28.60;;;;;;5075188;28;20492;-67
2023/06/05 11:58:28;;;;;;;2.10;1.50;;;19.60;28.30;;;;;;5075412;28;20119;-67
2023/06/05 12:01:14;;;;;;;5.25;1.42;;;19.70;27.90;;;;;;5075040;28;20044;-67
2023/06/05 12:03:41;;;;;;;1.77;1.20;;;19.80;30.00;;;;;;5074837;28;20049;-67
2023/06/05 12:06:07;;;;;;;2.45;1.00;;;19.80;28.90;;;;;;5074927;28;20043;-68
2023/06/05 12:08:34;;;;;;;3.13;1.55;;;19.90;30.90;;;;;;5074879;28;20037;-68
2023/06/05 12:11:02;;;;;;;1.30;0.80;;;20.10;31.20;;;;;;5075074;28;20055;-69
2023/06/05 12:13:51;;;;;;;1.70;1.15;;;19.90;28.40;;;;;;5074866;28;20204;-66
2023/06/05 12:16:30;;;;;;;3.38;1.63;;;19.80;26.90;;;;;;5074972;28;20071;-68
2023/06/05 12:18:56;;;;;;;2.20;1.25;;;19.90;33.00;;;;;;5073840;28;20032;-67
2023/06/05 12:21:23;;;;;;;3.80;1.50;;;20.20;30.40;;;;;;5074672;28;20457;-68
2023/06/05 12:23:50;;;;;;;2.90;1.00;;;19.90;28.20;;;;;;5074546;28;20115;-67
2023/06/05 12:26:16;;;;;;;4.68;1.65;;;20.00;29.90;;;;;;5074646;28;20492;-68
2023/06/05 12:28:44;;;;;;;1.45;0.90;;;20.00;28.10;;;;;;5074362;28;20119;-67
2023/06/05 12:31:10;;;;;;;3.78;1.17;;;20.00;29.50;;;;;;5074623;28;20029;-67
2023/06/05 12:33:54;;;;;;;2.42;1.25;;;19.80;29.20;;;;;;5074378;28;20037;-68
2023/06/05 12:36:20;;;;;;;3.05;1.35;;;20.10;29.00;;;;;;5074569;28;20051;-69
2023/06/05 12:38:46;;;;;;;2.13;1.40;;;20.30;28.90;;;;;;5074270;28;20211;-68
2023/06/05 12:41:11;;;;;;;2.67;1.42;;;20.20;30.00;;;;;;5074528;28;20135;-68
2023/06/05 12:43:38;;;;;;;1.42;0.95;;;20.20;30.00;;;;;;5074247;28;20033;-68
2023/06/05 12:46:05;;;;;;;2.13;1.25;;;20.30;30.90;;;;;;5074077;28;20037;-68
2023/06/05 12:48:31;;;;;;;1.58;0.90;;;20.40;31.90;;;;;;5074005;28;20036;-67
2023/06/05 12:50:57;;;;;;;2.10;1.10;;;20.40;32.20;;;;;;5074052;28;20483;-68
2023/06/05 12:53:23;;;;;;;2.42;1.20;;;20.50;30.00;;;;;;5074291;28;20102;-68
2023/06/05 12:55:48;;;;;;;1.90;1.08;;;20.40;31.10;;;;;;5074142;28;20499;-68
2023/06/05 12:58:14;;;;;;;5.22;1.45;;;20.50;32.80;;;;;;5074181;28;20047;-68
2023/06/05 13:00:40;;;;;;;2.13;1.17;;;20.30;32.80;;;;;;5074093;28;20119;-69
2023/06/05 13:03:06;;;;;;;1.23;0.93;;;20.60;33.60;;;;;;5073800;28;20059;-69
2023/06/05 13:05:32;;;;;;;2.50;1.33;;;20.50;32.70;;;;;;5073265;28;20502;-68
2023/06/05 13:07:58;;;;;;;3.28;1.25;;;20.70;32.00;;;;;;5073640;28;20365;-68
2023/06/05 13:10:24;;;;;;;2.42;1.10;;;21.10;33.10;;;;;;5072618;28;20048;-69
2023/06/05 13:12:50;;;;;;;2.03;1.15;;;20.60;33.00;;;;;;5073908;28;20383;-68
2023/06/05 13:15:15;;;;;;;2.03;1.20;;;20.70;23.70;;;;;;5073895;28;20040;-68
2023/06/05 13:17:41;;;;;;;1.90;1.02;;;20.80;33.70;;;;;;5073828;28;20067;-68
2023/06/05 13:20:10;;;;;;;2.33;0.93;;;20.80;33.00;;;;;;5073788;28;20395;-67
2023/06/05 13:22:40;;;;;;;1.60;0.90;;;20.90;34.70;;;;;;5072386;28;20088;-69
2023/06/05 13:25:07;;;;;;;2.55;1.58;;;20.80;32.40;;;;;;5074010;28;20080;-64
2023/06/05 13:27:33;;;;;;;1.95;1.38;;;20.70;30.20;;;;;;5073519;28;20049;-63
2023/06/05 13:29:59;;;;;;;2.13;1.10;;;20.70;28.10;;;;;;5073468;28;20375;-63